Greenwood, Nova Scotia

6:52 PM ADT on September 04, 2015 (GMT -0300)
Greenwood | | Change Station
CLOSE
Current Station
Airport
Location: Greenwood,
Elevation: 92 ft
Nearby Weather Stations

Elev 92 ft 44.98 °N, 64.91 °W | Updated 52 minutes ago

Mostly Cloudy
Mostly Cloudy
68 °F
Feels Like 68 °F
N
6
Wind Variable Wind from ENE

Today
High -- | Low -- °F
--% Chance of Precip.
Yesterday
High -- | Low -- °F
Precip. -- in
6:44 AM 7:51 PM
Waning Gibbous, 55% visible
Pressure 30.19 in
Visibility 15.0 miles
Clouds Mostly Cloudy 25000 ft
Dew Point 52 °F
Humidity 56%
Rainfall 0.00 in
Snow Depth Not available.
UV 1 out of 12
Pollen Not available.
Air Quality Not available.
Flu Activity Not available.
METAR CYZX 042100Z 06005KT 15SM BKN250 20/11 A3019 RMK CI2 WNDY HILL 02004KT SLP223
Pressure 30.19 in
Visibility 15.0 miles
Clouds Mostly Cloudy 25000 ft
Dew Point 52 °F
Humidity 56%
Rainfall 0.00 in
Snow Depth Not available.
UV 1 out of 12
Pollen Not available.
Air Quality Not available.
Flu Activity Not available.
METAR CYZX 042100Z 06005KT 15SM BKN250 20/11 A3019 RMK CI2 WNDY HILL 02004KT SLP223

10-Day Weather Forecast

×

Almanac

Astronomy

Sep. 04, 2015 Rise Set
Actual Time
Civil Twilight
Nautical Twilight
Astronomical Twilight
Moon
Length of Visible Light
Length of Day
Tomorrow will be .
, % of the Moon is Illuminated

Today's Extremes

Country Highs Country Lows

Community

WunderPhotos

Upload Photos

1,852,297 photos uploaded!

WunderBlogs® & News

Nearby

Air Quality

  Air Quality AQ Index Pollutant
Not available.

Snow Depth

Station Depth Elevation

Earthquake Activity

City Distance Mag. Time & Date
Minimum magnitude displayed is 2.5.

Coastal Water Temperatures

Place Temperature

Stations

Nearby Weather Stations

Station Location Temp. Windchill Dew Point Humidity Wind Precip. Elev Updated Type